createdAt,value
2023-05-12T00:01:21.892Z,101456.44
2023-05-12T00:03:49.024Z,101461.97
2023-05-12T00:06:16.201Z,101460.28
2023-05-12T00:08:43.112Z,101459.25
2023-05-12T00:11:10.153Z,101454.03
2023-05-12T00:13:37.964Z,101455.19
2023-05-12T00:16:05.594Z,101456.22
2023-05-12T00:18:32.585Z,101456.50
2023-05-12T00:20:59.648Z,101455.84
2023-05-12T00:23:26.710Z,101456.00
2023-05-12T00:25:53.614Z,101453.50
2023-05-12T00:28:20.958Z,101450.34
2023-05-12T00:30:47.963Z,101450.09
2023-05-12T00:33:16.630Z,101440.34
2023-05-12T00:35:45.720Z,101436.50
2023-05-12T00:38:13.661Z,101445.63
2023-05-12T00:40:42.043Z,101439.56
2023-05-12T00:43:09.256Z,101438.75
2023-05-12T00:45:36.754Z,101440.16
2023-05-12T00:48:05.619Z,101438.41
2023-05-12T00:50:32.973Z,101438.91
2023-05-12T00:53:02.089Z,101436.13
2023-05-12T00:55:31.369Z,101425.94
2023-05-12T00:57:59.327Z,101430.25
2023-05-12T01:00:26.232Z,101434.50
2023-05-12T01:02:53.318Z,101420.81
2023-05-12T01:05:20.405Z,101430.25
2023-05-12T01:07:47.775Z,101426.84
2023-05-12T01:10:22.204Z,101424.47
2023-05-12T01:12:49.377Z,101419.19
2023-05-12T01:15:17.679Z,101418.31
2023-05-12T01:17:56.188Z,101431.44
2023-05-12T01:20:27.237Z,101425.13
2023-05-12T01:22:55.498Z,101430.22
2023-05-12T01:25:24.992Z,101423.69
2023-05-12T01:27:53.636Z,101412.00
2023-05-12T01:30:23.051Z,101428.75
2023-05-12T01:32:51.468Z,101412.59
2023-05-12T01:35:19.060Z,101413.00
2023-05-12T01:37:46.428Z,101416.25
2023-05-12T01:40:13.824Z,101417.75
2023-05-12T01:42:42.629Z,101422.06
2023-05-12T01:45:10.416Z,101420.63
2023-05-12T01:47:37.408Z,101411.38
2023-05-12T01:50:04.853Z,101416.31
2023-05-12T01:52:31.824Z,101415.94
2023-05-12T01:54:58.811Z,101411.13
2023-05-12T01:57:26.826Z,101417.75
2023-05-12T01:59:53.816Z,101425.22
2023-05-12T02:02:20.805Z,101419.09
2023-05-12T02:04:47.709Z,101417.56
2023-05-12T02:07:15.766Z,101420.56
2023-05-12T02:09:42.767Z,101422.13
2023-05-12T02:12:09.756Z,101423.16
2023-05-12T02:14:36.733Z,101426.53
2023-05-12T02:17:04.663Z,101420.34
2023-05-12T02:19:31.596Z,101421.38
2023-05-12T02:21:58.512Z,101406.22
2023-05-12T02:24:25.461Z,101421.75
2023-05-12T02:26:52.356Z,101414.19
2023-05-12T02:29:19.337Z,101410.50
2023-05-12T02:31:46.423Z,101413.84
2023-05-12T02:34:13.381Z,101411.84
2023-05-12T02:36:40.446Z,101409.63
2023-05-12T02:39:08.095Z,101404.44
2023-05-12T02:41:35.077Z,101402.78
2023-05-12T02:44:02.015Z,101403.78
2023-05-12T02:46:28.978Z,101408.84
2023-05-12T02:48:55.883Z,101402.59
2023-05-12T02:51:23.036Z,101407.50
2023-05-12T02:53:50.059Z,101404.31
2023-05-12T02:56:17.990Z,101396.56
2023-05-12T02:58:45.748Z,101405.94
2023-05-12T03:01:12.930Z,101402.75
2023-05-12T03:03:40.508Z,101397.75
2023-05-12T03:06:08.056Z,101408.06
2023-05-12T03:08:35.065Z,101402.44
2023-05-12T03:11:02.111Z,101400.19
2023-05-12T03:13:29.038Z,101393.56
2023-05-12T03:15:57.170Z,101398.59
2023-05-12T03:18:24.180Z,101392.44
2023-05-12T03:20:51.183Z,101388.66
2023-05-12T03:23:18.249Z,101394.41
2023-05-12T03:25:45.146Z,101391.19
2023-05-12T03:28:12.894Z,101391.19
2023-05-12T03:30:39.830Z,101390.53
2023-05-12T03:33:06.804Z,101389.63
2023-05-12T03:35:33.715Z,101389.34
2023-05-12T03:38:00.789Z,101392.53
2023-05-12T03:40:27.690Z,101389.41
2023-05-12T03:42:54.640Z,101394.97
2023-05-12T03:45:21.877Z,101407.97
2023-05-12T03:47:48.958Z,101402.38
2023-05-12T03:50:16.063Z,101409.50
2023-05-12T03:52:43.036Z,101406.63
2023-05-12T03:55:10.581Z,101402.66
2023-05-12T03:57:38.202Z,101395.56
2023-05-12T04:00:06.704Z,101393.03
2023-05-12T04:02:33.750Z,101394.44
2023-05-12T04:05:01.249Z,101394.69
2023-05-12T04:07:28.309Z,101407.88
2023-05-12T04:09:55.526Z,101396.84
2023-05-12T04:12:22.508Z,101399.72
2023-05-12T04:14:49.949Z,101398.78
2023-05-12T04:17:19.231Z,101395.41
2023-05-12T04:19:46.770Z,101396.25
2023-05-12T04:22:13.752Z,101399.06
2023-05-12T04:24:40.683Z,101400.91
2023-05-12T04:27:07.633Z,101392.84
2023-05-12T04:29:34.969Z,101391.09
2023-05-12T04:32:01.888Z,101396.84
2023-05-12T04:34:29.956Z,101395.38
2023-05-12T04:36:56.942Z,101395.81
2023-05-12T04:39:23.882Z,101389.53
2023-05-12T04:41:50.882Z,101397.94
2023-05-12T04:44:17.849Z,101401.59
2023-05-12T04:46:44.988Z,101396.41
2023-05-12T04:49:11.976Z,101398.25
2023-05-12T04:51:43.017Z,101396.41
2023-05-12T04:54:12.762Z,101409.66
2023-05-12T04:56:39.709Z,101404.53
2023-05-12T04:59:06.655Z,101403.72
2023-05-12T05:01:33.709Z,101407.66
2023-05-12T05:04:00.717Z,101405.19
2023-05-12T05:06:28.351Z,101407.91
2023-05-12T05:08:56.003Z,101417.69
2023-05-12T05:11:23.734Z,101410.38
2023-05-12T05:13:50.825Z,101421.59
2023-05-12T05:16:17.908Z,101418.88
2023-05-12T05:18:47.714Z,101429.97
2023-05-12T05:21:14.656Z,101426.66
2023-05-12T05:23:41.986Z,101437.34
2023-05-12T05:26:09.372Z,101438.50
2023-05-12T05:28:37.341Z,101438.00
2023-05-12T05:31:04.766Z,101440.31
2023-05-12T05:33:32.401Z,101432.75
2023-05-12T05:36:00.089Z,101422.28
2023-05-12T05:38:27.192Z,101435.78
2023-05-12T05:40:54.779Z,101431.44
2023-05-12T05:43:21.859Z,101441.31
2023-05-12T05:45:50.009Z,101433.81
2023-05-12T05:48:17.531Z,101435.66
2023-05-12T05:50:45.123Z,101437.03
2023-05-12T05:53:12.099Z,101429.97
2023-05-12T05:55:39.060Z,101428.06
2023-05-12T05:58:05.960Z,101434.84
2023-05-12T06:00:32.867Z,101440.72
2023-05-12T06:02:59.923Z,101436.94
2023-05-12T06:05:26.998Z,101436.72
2023-05-12T06:07:54.003Z,101430.91
2023-05-12T06:10:21.411Z,101424.31
2023-05-12T06:12:48.765Z,101435.38
2023-05-12T06:15:15.750Z,101435.94
2023-05-12T06:17:42.978Z,101431.34
2023-05-12T06:20:10.574Z,101433.38
2023-05-12T06:22:38.640Z,101427.09
2023-05-12T06:25:06.335Z,101420.88
2023-05-12T06:27:33.618Z,101428.50
2023-05-12T06:30:00.883Z,101427.28
2023-05-12T06:32:27.880Z,101428.91
2023-05-12T06:34:54.882Z,101424.84
2023-05-12T06:37:21.812Z,101422.53
2023-05-12T06:39:48.810Z,101422.84
2023-05-12T06:42:15.889Z,101434.16
2023-05-12T06:44:42.922Z,101428.81
2023-05-12T06:47:09.872Z,101435.09
2023-05-12T06:49:38.629Z,101431.41
2023-05-12T06:52:06.766Z,101423.34
2023-05-12T06:54:33.915Z,101432.72
2023-05-12T06:57:01.260Z,101430.53
2023-05-12T06:59:28.224Z,101430.09
2023-05-12T07:01:56.463Z,101429.28
2023-05-12T07:04:24.570Z,101411.44
2023-05-12T07:06:53.464Z,101426.78
2023-05-12T07:09:20.392Z,101422.75
2023-05-12T07:11:47.806Z,101420.06
2023-05-12T07:14:14.859Z,101417.31
2023-05-12T07:16:41.815Z,101424.16
2023-05-12T07:19:09.682Z,101418.25
2023-05-12T07:21:37.524Z,101417.69
2023-05-12T07:24:06.303Z,101420.78
2023-05-12T07:26:33.617Z,101414.69
2023-05-12T07:29:00.990Z,101408.09
2023-05-12T07:31:28.716Z,101402.13
2023-05-12T07:33:55.887Z,101403.97
2023-05-12T07:36:22.975Z,101401.06
2023-05-12T07:38:50.048Z,101396.94
2023-05-12T07:41:17.961Z,101386.59
2023-05-12T07:43:45.629Z,101385.97
2023-05-12T07:46:12.763Z,101394.06
2023-05-12T07:48:40.410Z,101384.72
2023-05-12T07:51:08.769Z,101391.63
2023-05-12T07:53:36.163Z,101395.44
2023-05-12T07:56:03.288Z,101396.44
2023-05-12T07:58:30.351Z,101388.06
2023-05-12T08:01:00.139Z,101383.66
2023-05-12T08:03:27.391Z,101384.19
2023-05-12T08:05:54.659Z,101385.59
2023-05-12T08:08:21.680Z,101365.34
2023-05-12T08:10:48.671Z,101377.69
2023-05-12T08:13:15.730Z,101366.69
2023-05-12T08:15:42.672Z,101362.34
2023-05-12T08:18:09.756Z,101359.72
2023-05-12T08:20:37.110Z,101357.69
2023-05-12T08:23:04.070Z,101354.19
2023-05-12T08:25:31.447Z,101352.84
2023-05-12T08:27:59.783Z,101358.59
2023-05-12T08:30:27.259Z,101350.28
2023-05-12T08:32:57.526Z,101351.09
2023-05-12T08:35:26.720Z,101355.16
2023-05-12T08:37:53.949Z,101358.25
2023-05-12T08:40:26.375Z,101352.09
2023-05-12T08:43:30.549Z,101355.38
2023-05-12T08:45:58.558Z,101338.13
2023-05-12T08:48:31.041Z,101346.56
2023-05-12T08:50:58.897Z,101345.09
2023-05-12T08:53:27.820Z,101344.31
2023-05-12T08:57:09.461Z,101345.75
2023-05-12T08:58:44.864Z,101344.94
2023-05-12T09:01:12.623Z,101341.88
2023-05-12T09:03:39.768Z,101331.97
2023-05-12T09:06:08.700Z,101331.41
2023-05-12T09:08:37.556Z,101343.53
2023-05-12T09:11:04.804Z,101337.75
2023-05-12T09:14:05.118Z,101334.66
2023-05-12T09:16:38.075Z,101334.69
2023-05-12T09:19:06.902Z,101331.00
2023-05-12T09:21:34.389Z,101323.81
2023-05-12T09:24:07.750Z,101327.69
2023-05-12T09:26:55.912Z,101327.47
2023-05-12T09:29:30.820Z,101329.97
2023-05-12T09:32:02.232Z,101330.75
2023-05-12T09:34:41.226Z,101330.41
2023-05-12T09:37:08.659Z,101338.59
2023-05-12T09:39:36.566Z,101330.34
2023-05-12T09:42:03.899Z,101338.75
2023-05-12T09:44:32.640Z,101332.25
2023-05-12T09:47:10.472Z,101331.81
2023-05-12T09:49:38.328Z,101330.59
2023-05-12T09:52:05.721Z,101330.72
2023-05-12T09:54:34.503Z,101332.66
2023-05-12T09:57:05.246Z,101330.69
2023-05-12T09:59:38.510Z,101339.13
2023-05-12T10:02:09.286Z,101336.91
2023-05-12T10:04:55.469Z,101332.25
2023-05-12T10:07:26.438Z,101351.28
2023-05-12T10:09:57.414Z,101338.16
2023-05-12T10:12:25.503Z,101350.28
2023-05-12T10:14:53.026Z,101351.34
2023-05-12T10:17:20.624Z,101351.59
2023-05-12T10:19:49.139Z,101360.91
2023-05-12T10:22:18.270Z,101359.03
2023-05-12T10:24:46.421Z,101356.78
2023-05-12T10:27:16.009Z,101366.75
2023-05-12T10:29:43.900Z,101364.66
2023-05-12T10:32:11.403Z,101368.91
2023-05-12T10:34:40.056Z,101365.13
2023-05-12T10:37:13.693Z,101365.66
2023-05-12T10:39:49.256Z,101372.16
2023-05-12T10:42:25.753Z,101371.91
2023-05-12T10:44:55.461Z,101374.75
2023-05-12T10:47:31.585Z,101370.53
2023-05-12T10:49:59.638Z,101381.41
2023-05-12T10:52:26.598Z,101377.44
2023-05-12T10:55:02.030Z,101377.00
2023-05-12T10:57:30.801Z,101378.56
2023-05-12T11:00:01.156Z,101381.44
2023-05-12T11:02:33.025Z,101385.28
2023-05-12T11:05:12.901Z,101384.19
2023-05-12T11:07:41.822Z,101388.25
2023-05-12T11:10:10.679Z,101379.44
2023-05-12T11:12:37.884Z,101385.66
2023-05-12T11:15:07.134Z,101388.91
2023-05-12T11:17:34.748Z,101397.13
2023-05-12T11:20:02.025Z,101398.75
2023-05-12T11:22:29.416Z,101397.88
2023-05-12T11:24:56.904Z,101390.88
2023-05-12T11:27:24.409Z,101402.09
2023-05-12T11:30:02.909Z,101402.13
2023-05-12T11:32:30.428Z,101401.53
2023-05-12T11:35:10.818Z,101404.72
2023-05-12T11:37:39.965Z,101406.78
2023-05-12T11:40:19.377Z,101405.06
2023-05-12T11:42:52.891Z,101419.06
2023-05-12T11:45:29.332Z,101426.44
2023-05-12T11:48:12.602Z,101428.78
2023-05-12T11:50:48.346Z,101423.63
2023-05-12T11:53:18.901Z,101424.16
2023-05-12T11:55:51.540Z,101433.84
2023-05-12T11:58:26.733Z,101429.84
2023-05-12T12:00:55.099Z,101426.94
2023-05-12T12:03:22.333Z,101434.25
2023-05-12T12:06:01.855Z,101429.75
2023-05-12T12:08:29.016Z,101435.09
2023-05-12T12:10:56.010Z,101430.13
2023-05-12T12:13:25.598Z,101431.75
2023-05-12T12:15:52.960Z,101427.19
2023-05-12T12:18:20.126Z,101426.75
2023-05-12T12:20:47.609Z,101435.59
2023-05-12T12:23:14.829Z,101433.16
2023-05-12T12:25:41.847Z,101440.69
2023-05-12T12:28:09.020Z,101434.63
2023-05-12T12:30:36.109Z,101423.72
2023-05-12T12:33:03.139Z,101427.22
2023-05-12T12:35:30.088Z,101417.47
2023-05-12T12:37:57.048Z,101422.31
2023-05-12T12:40:23.973Z,101421.88
2023-05-12T12:42:50.916Z,101427.59
2023-05-12T12:45:20.252Z,101426.66
2023-05-12T12:47:47.685Z,101428.34
2023-05-12T12:50:15.007Z,101426.00
2023-05-12T12:52:42.039Z,101429.16
2023-05-12T12:55:09.996Z,101423.91
2023-05-12T12:57:37.054Z,101421.38
2023-05-12T13:00:05.714Z,101425.69
2023-05-12T13:02:33.186Z,101430.75
2023-05-12T13:05:05.320Z,101432.13
2023-05-12T13:07:32.942Z,101433.25
2023-05-12T13:09:59.916Z,101436.97
2023-05-12T13:12:28.253Z,101436.53
2023-05-12T13:14:55.454Z,101443.94
2023-05-12T13:17:22.407Z,101437.06
2023-05-12T13:19:49.427Z,101444.88
2023-05-12T13:22:16.504Z,101447.47
2023-05-12T13:24:43.505Z,101454.84
2023-05-12T13:27:10.750Z,101441.94
2023-05-12T13:29:37.729Z,101449.81
2023-05-12T13:32:04.964Z,101444.28
2023-05-12T13:34:31.860Z,101443.22
2023-05-12T13:36:59.086Z,101450.66
2023-05-12T13:39:26.031Z,101451.72
2023-05-12T13:41:52.977Z,101445.88
2023-05-12T13:44:19.918Z,101452.16
2023-05-12T13:46:46.900Z,101453.41
2023-05-12T13:49:13.885Z,101454.47
2023-05-12T13:51:40.848Z,101446.25
2023-05-12T13:54:07.846Z,101456.97
2023-05-12T13:56:34.787Z,101455.41
2023-05-12T13:59:01.722Z,101453.78
2023-05-12T14:01:28.754Z,101455.31
2023-05-12T14:03:55.701Z,101462.22
2023-05-12T14:06:22.592Z,101462.78
2023-05-12T14:08:49.547Z,101461.28
2023-05-12T14:11:16.958Z,101453.34
2023-05-12T14:13:43.891Z,101457.88
2023-05-12T14:16:12.831Z,101455.34
2023-05-12T14:18:42.613Z,101452.13
2023-05-12T14:21:10.542Z,101455.47
2023-05-12T14:23:37.865Z,101447.66
2023-05-12T14:26:05.081Z,101461.47
2023-05-12T14:28:32.247Z,101449.88
2023-05-12T14:30:59.218Z,101458.16
2023-05-12T14:33:26.383Z,101452.91
2023-05-12T14:36:05.885Z,101436.97
2023-05-12T14:38:34.699Z,101449.94
2023-05-12T14:41:01.690Z,101449.66
2023-05-12T14:43:28.628Z,101455.38
2023-05-12T14:45:55.628Z,101452.19
2023-05-12T14:48:27.198Z,101455.19
2023-05-12T14:50:55.564Z,101463.94
2023-05-12T14:53:23.589Z,101474.16
2023-05-12T14:55:51.409Z,101462.59
2023-05-12T14:58:18.774Z,101468.91
2023-05-12T15:00:47.241Z,101469.50
2023-05-12T15:03:14.687Z,101466.09
2023-05-12T15:06:04.073Z,101484.66
2023-05-12T15:08:29.323Z,101473.41
2023-05-12T15:10:56.220Z,101483.94
2023-05-12T15:13:23.187Z,101481.72
2023-05-12T15:15:51.790Z,101481.28
2023-05-12T15:18:21.001Z,101483.44
2023-05-12T15:20:48.108Z,101473.31
2023-05-12T15:23:15.020Z,101476.06
2023-05-12T15:25:42.195Z,101475.56
2023-05-12T15:28:09.231Z,101481.13
2023-05-12T15:30:36.252Z,101483.94
2023-05-12T15:33:06.692Z,101488.88
2023-05-12T15:35:33.994Z,101485.56
2023-05-12T15:38:01.128Z,101493.44
2023-05-12T15:40:30.689Z,101497.06
2023-05-12T15:42:57.973Z,101518.97
2023-05-12T15:45:24.936Z,101503.50
2023-05-12T15:47:52.157Z,101504.34
2023-05-12T15:50:22.488Z,101505.38
2023-05-12T15:52:49.735Z,101510.81
2023-05-12T15:55:16.962Z,101509.69
2023-05-12T15:57:43.914Z,101499.81
2023-05-12T16:00:12.182Z,101497.44
2023-05-12T16:02:39.229Z,101493.06
2023-05-12T16:05:07.199Z,101488.81
2023-05-12T16:07:34.656Z,101488.63
2023-05-12T16:10:01.779Z,101485.63
2023-05-12T16:12:28.794Z,101493.31
2023-05-12T16:14:55.711Z,101488.81
2023-05-12T16:17:22.816Z,101493.53
2023-05-12T16:19:50.408Z,101490.53
2023-05-12T16:22:17.720Z,101496.47
2023-05-12T16:24:44.646Z,101502.94
2023-05-12T16:27:11.629Z,101507.00
2023-05-12T16:29:38.537Z,101513.44
2023-05-12T16:32:06.176Z,101513.00
2023-05-12T16:34:33.372Z,101545.03
2023-05-12T16:37:00.268Z,101557.53
2023-05-12T16:39:27.212Z,101557.97
2023-05-12T16:41:54.139Z,101554.38
2023-05-12T16:44:21.029Z,101549.63
2023-05-12T16:46:48.001Z,101551.72
2023-05-12T16:49:14.986Z,101546.94
2023-05-12T16:51:42.177Z,101543.63
2023-05-12T16:54:09.312Z,101550.00
2023-05-12T16:56:36.255Z,101537.06
2023-05-12T16:59:03.714Z,101543.47
2023-05-12T17:01:31.739Z,101547.59
2023-05-12T17:03:59.066Z,101551.63
2023-05-12T17:06:26.337Z,101560.53
2023-05-12T17:08:53.620Z,101564.28
2023-05-12T17:11:20.758Z,101566.50
2023-05-12T17:13:47.994Z,101579.84
2023-05-12T17:16:15.034Z,101589.03
2023-05-12T17:21:12.344Z,101578.06
2023-05-12T17:23:39.428Z,101594.91
2023-05-12T17:26:06.353Z,101596.97
2023-05-12T17:28:33.304Z,101586.09
2023-05-12T17:31:01.346Z,101598.38
2023-05-12T17:33:29.149Z,101603.75
2023-05-12T17:36:10.746Z,101581.50
2023-05-12T17:38:40.005Z,101571.03
2023-05-12T17:41:06.955Z,101574.06
2023-05-12T17:43:33.883Z,101576.56
2023-05-12T17:46:01.026Z,101581.94
2023-05-12T17:48:31.292Z,101596.34
2023-05-12T17:50:58.480Z,101589.28
2023-05-12T17:53:25.604Z,101595.72
2023-05-12T17:55:52.623Z,101598.31
2023-05-12T17:58:20.734Z,101598.56
2023-05-12T18:00:47.780Z,101614.25
2023-05-12T18:03:14.912Z,101605.41
2023-05-12T18:05:42.212Z,101614.34
2023-05-12T18:08:09.307Z,101622.97
2023-05-12T18:10:36.660Z,101619.88
2023-05-12T18:13:03.587Z,101612.25
2023-05-12T18:15:30.741Z,101622.16
2023-05-12T18:17:58.137Z,101619.72
2023-05-12T18:20:25.682Z,101626.66
2023-05-12T18:22:52.758Z,101632.44
2023-05-12T18:25:19.933Z,101629.47
2023-05-12T18:27:48.440Z,101621.06
2023-05-12T18:30:15.648Z,101628.97
2023-05-12T18:32:42.666Z,101614.06
2023-05-12T18:35:10.242Z,101614.25
2023-05-12T18:37:37.212Z,101611.94
2023-05-12T18:40:05.074Z,101616.28
2023-05-12T18:42:32.053Z,101618.13
2023-05-12T18:44:58.972Z,101626.38
2023-05-12T18:47:26.214Z,101627.97
2023-05-12T18:49:53.400Z,101624.50
2023-05-12T18:52:21.348Z,101633.38
2023-05-12T18:54:49.790Z,101642.75
2023-05-12T18:57:17.908Z,101635.13
2023-05-12T18:59:44.942Z,101641.53
2023-05-12T19:02:12.115Z,101645.09
2023-05-12T19:04:39.250Z,101648.38
2023-05-12T19:07:09.611Z,101652.06
2023-05-12T19:09:37.492Z,101662.41
2023-05-12T19:12:06.060Z,101669.16
2023-05-12T19:14:33.221Z,101666.66
2023-05-12T19:17:00.366Z,101673.91
2023-05-12T19:19:27.286Z,101681.56
2023-05-12T19:21:54.179Z,101677.19
2023-05-12T19:24:25.087Z,101690.81
2023-05-12T19:26:51.999Z,101688.72
2023-05-12T19:29:18.933Z,101694.25
2023-05-12T19:31:45.936Z,101694.09
2023-05-12T19:34:12.968Z,101696.78
2023-05-12T19:36:39.956Z,101697.81
2023-05-12T19:39:06.909Z,101695.78
2023-05-12T19:41:33.820Z,101708.00
2023-05-12T19:44:00.812Z,101697.16
2023-05-12T19:46:27.758Z,101698.41
2023-05-12T19:48:54.647Z,101704.16
2023-05-12T19:51:21.567Z,101705.78
2023-05-12T19:53:48.506Z,101704.38
2023-05-12T19:56:15.417Z,101699.81
2023-05-12T19:58:42.328Z,101714.88
2023-05-12T20:01:09.337Z,101710.72
2023-05-12T20:03:36.419Z,101713.63
2023-05-12T20:06:04.605Z,101707.66
2023-05-12T20:08:31.573Z,101711.50
2023-05-12T20:10:58.653Z,101709.66
2023-05-12T20:13:25.567Z,101711.31
2023-05-12T20:15:52.513Z,101720.97
2023-05-12T20:18:21.482Z,101726.94
2023-05-12T20:20:48.884Z,101718.53
2023-05-12T20:23:15.917Z,101726.13
2023-05-12T20:25:43.301Z,101728.38
2023-05-12T20:28:11.609Z,101732.53
2023-05-12T20:30:38.924Z,101734.78
2023-05-12T20:33:06.086Z,101734.72
2023-05-12T20:35:33.080Z,101742.00
2023-05-12T20:38:00.102Z,101736.84
2023-05-12T20:40:27.106Z,101732.13
2023-05-12T20:42:53.994Z,101726.59
2023-05-12T20:45:21.334Z,101736.66
2023-05-12T20:47:49.320Z,101740.94
2023-05-12T20:50:17.025Z,101742.78
2023-05-12T20:52:46.254Z,101761.91
2023-05-12T20:55:13.329Z,101759.00
2023-05-12T20:57:40.369Z,101752.84
2023-05-12T21:00:10.940Z,101755.44
2023-05-12T21:02:38.233Z,101753.50
2023-05-12T21:05:05.889Z,101752.63
2023-05-12T21:07:33.315Z,101753.19
2023-05-12T21:10:00.670Z,101755.69
2023-05-12T21:12:28.006Z,101759.00
2023-05-12T21:14:55.196Z,101756.94
2023-05-12T21:17:22.476Z,101766.19
2023-05-12T21:19:49.468Z,101759.22
2023-05-12T21:22:16.591Z,101758.00
2023-05-12T21:24:43.484Z,101762.09
2023-05-12T21:27:11.545Z,101763.13
2023-05-12T21:29:38.474Z,101772.59
2023-05-12T21:32:06.105Z,101769.69
2023-05-12T21:34:33.810Z,101766.81
2023-05-12T21:37:00.981Z,101776.06
2023-05-12T21:39:28.360Z,101775.47
2023-05-12T21:41:55.695Z,101773.84
2023-05-12T21:44:22.672Z,101778.78
2023-05-12T21:46:49.626Z,101773.22
2023-05-12T21:49:16.781Z,101777.09
2023-05-12T21:51:43.749Z,101781.59
2023-05-12T21:54:10.909Z,101785.31
2023-05-12T21:56:38.079Z,101787.53
2023-05-12T21:59:05.154Z,101790.41
2023-05-12T22:01:32.129Z,101787.34
2023-05-12T22:03:59.194Z,101790.63
2023-05-12T22:06:26.245Z,101788.56
2023-05-12T22:08:54.161Z,101782.63
2023-05-12T22:11:21.694Z,101782.63
2023-05-12T22:13:49.609Z,101784.88
2023-05-12T22:16:18.612Z,101790.75
2023-05-12T22:18:47.027Z,101794.41
2023-05-12T22:21:14.053Z,101796.22
2023-05-12T22:23:42.721Z,101780.00
2023-05-12T22:26:10.541Z,101791.91
2023-05-12T22:28:37.551Z,101793.44
2023-05-12T22:31:04.521Z,101796.44
2023-05-12T22:33:32.533Z,101795.41
2023-05-12T22:36:02.619Z,101808.50
2023-05-12T22:38:29.559Z,101805.53
2023-05-12T22:40:56.475Z,101809.84
2023-05-12T22:43:23.474Z,101811.19
2023-05-12T22:45:55.756Z,101812.38
2023-05-12T22:48:23.076Z,101816.41
2023-05-12T22:50:53.719Z,101816.13
2023-05-12T22:53:20.746Z,101817.88
2023-05-12T22:55:48.040Z,101821.72
2023-05-12T22:58:14.993Z,101826.31
2023-05-12T23:00:41.960Z,101825.09
2023-05-12T23:03:08.961Z,101823.09
2023-05-12T23:05:36.101Z,101829.53
2023-05-12T23:08:03.003Z,101826.22
2023-05-12T23:10:30.072Z,101822.06
2023-05-12T23:12:57.051Z,101826.13
2023-05-12T23:15:24.266Z,101817.19
2023-05-12T23:17:51.194Z,101818.88
2023-05-12T23:20:18.447Z,101819.84
2023-05-12T23:22:45.384Z,101817.97
2023-05-12T23:25:12.314Z,101817.41
2023-05-12T23:27:39.284Z,101813.31
2023-05-12T23:30:07.294Z,101816.34
2023-05-12T23:32:34.386Z,101825.88
2023-05-12T23:35:01.475Z,101818.81
2023-05-12T23:37:28.422Z,101815.66
2023-05-12T23:39:56.382Z,101825.25
2023-05-12T23:42:23.482Z,101825.66
2023-05-12T23:44:50.377Z,101827.31
2023-05-12T23:47:17.890Z,101830.56
2023-05-12T23:49:44.857Z,101827.25
2023-05-12T23:52:11.766Z,101815.06
2023-05-12T23:54:38.734Z,101811.41
2023-05-12T23:57:06.405Z,101822.16
2023-05-12T23:59:33.385Z,101831.16
